Terminal Aerodrome Forecast
Issued by NWS Newport/Morehead City, NC

Home | Current Version | Previous Version | Text Only | Print | Product List | Glossary On
Versions: 1 2 3 4 5 6 7 8 9 10 11 12 13 14 15 16 17
000
FTUS42 KMHX 300901 AAA
TAFEWN
TAF AMD
KEWN 300901Z 3009/3106 32003KT 3SM BR BKN200
     FM301300 VRB05KT P6SM SCT040 OVC150
     FM310200 20003KT P6SM OVC030=

USA.gov is the U.S. government's official web portal to all federal, state and local government web resources and services.